Time;durP1;ratioP1;P1;durP2;ratioP2;P2;SDS_P1;SDS_P2;PMS_P1;PMS_P2;Temp;Humidity;BMP_temperature;BMP_pressure;BME280_temperature;BME280_humidity;BME280_pressure;Samples;Min_cycle;Max_cycle;Signal;HPM_P1;HPM_P2
2022/03/11 00:00:52;;;;;;;;;;;0.40;80.70;;;-0.99;76.05;97353.38;4090692;34;19910;-83
2022/03/11 00:03:21;;;;;;;;;;;0.40;80.70;;;-1.00;76.28;97351.69;4091695;34;20250;-83
2022/03/11 00:05:50;;;;;;;;;;;0.40;80.70;;;-1.02;76.41;97349.19;4117006;34;19910;-83
2022/03/11 00:08:21;;;;;;;;;;;0.40;80.70;;;-1.01;76.33;97348.19;4094273;34;24985;-83
2022/03/11 00:10:49;;;;;;;;;;;0.40;80.70;;;-1.01;76.63;97344.66;4116928;34;19903;-83
2022/03/11 00:13:18;;;;;;;;;;;0.40;80.60;;;-1.03;76.53;97342.13;4120118;34;20205;-83
2022/03/11 00:15:47;;;;;;;;;;;0.40;80.80;;;-1.02;76.58;97349.19;4100833;34;19903;-83
2022/03/11 00:18:17;;;;;;;;;;;0.40;80.90;;;-1.03;76.19;97342.13;4114256;34;20550;-83
2022/03/11 00:20:45;;;;;;;;;;;0.40;80.60;;;-1.04;75.94;97343.16;4090785;34;20199;-83
2022/03/11 00:23:14;;;;;;;;;;;0.40;80.40;;;-1.03;76.30;97352.06;4091145;34;19910;-83
2022/03/11 00:25:42;;;;;;;;;;;0.40;80.60;;;-1.04;75.95;97351.22;4089711;34;20238;-84
2022/03/11 00:28:11;;;;;;;;;;;0.40;80.60;;;-1.04;76.08;97351.22;4113371;34;20516;-84
2022/03/11 00:30:39;;;;;;;;;;;0.40;80.60;;;-1.05;76.37;97341.47;4090031;34;19903;-83
2022/03/11 00:33:08;;;;;;;;;;;0.40;80.50;;;-1.04;76.59;97347.69;4091286;34;20222;-84
2022/03/11 00:35:39;;;;;;;;;;;0.40;80.70;;;-1.04;76.62;97345.00;4112455;34;20204;-84
2022/03/11 00:38:08;;;;;;;;;;;0.40;80.70;;;-1.04;76.38;97356.59;4112733;34;20216;-84
2022/03/11 00:40:36;;;;;;;;;;;0.40;80.70;;;-1.05;76.11;97348.69;4099496;33;20203;-83
2022/03/11 00:43:05;;;;;;;;;;;0.40;80.60;;;-1.05;76.46;97354.91;4141203;33;20497;-84
2022/03/11 00:45:34;;;;;;;;;;;0.40;80.60;;;-1.05;76.31;97359.44;4140588;33;19902;-84
2022/03/11 00:48:02;;;;;;;;;;;0.40;80.60;;;-1.05;76.28;97351.38;4141668;33;20213;-83
2022/03/11 00:50:30;;;;;;;;;;;0.40;80.70;;;-1.06;76.47;97350.53;4118364;33;19903;-83
2022/03/11 00:53:01;;;;;;;;;;;0.30;80.60;;;-1.08;76.31;97345.34;4118891;33;20196;-83
2022/03/11 00:55:31;;;;;;;;;;;0.30;80.60;;;-1.07;76.58;97346.16;4118220;33;20863;-83
2022/03/11 00:57:59;;;;;;;;;;;0.30;80.70;;;-1.08;76.48;97339.09;4141062;33;19910;-84
2022/03/11 01:00:28;;;;;;;;;;;0.30;80.80;;;-1.07;76.25;97343.47;4141868;33;20229;-83
2022/03/11 01:02:56;;;;;;;;;;;0.30;80.60;;;-1.08;75.98;97339.09;4140641;33;20107;-84
2022/03/11 01:05:25;;;;;;;;;;;0.30;80.40;;;-1.10;76.55;97346.53;4109762;33;20227;-84
2022/03/11 01:07:53;;;;;;;;;;;0.30;80.60;;;-1.09;76.42;97343.66;4130135;33;20198;-83
2022/03/11 01:10:23;;;;;;;;;;;0.30;80.80;;;-1.09;76.50;97342.81;4130944;33;20367;-83
2022/03/11 01:12:52;;;;;;;;;;;0.30;80.60;;;-1.11;76.56;97344.84;4132641;33;20062;-83
2022/03/11 01:15:20;;;;;;;;;;;0.30;80.70;;;-1.10;76.26;97350.03;4132190;33;20125;-84
2022/03/11 01:17:49;;;;;;;;;;;0.30;80.80;;;-1.11;76.24;97344.84;4109710;33;20218;-83
2022/03/11 01:20:17;;;;;;;;;;;0.30;80.60;;;-1.12;76.55;97337.78;4131336;33;20180;-84
2022/03/11 01:22:46;;;;;;;;;;;0.30;80.80;;;-1.11;76.22;97334.91;4132628;33;20219;-83
2022/03/11 01:25:15;;;;;;;;;;;0.30;80.90;;;-1.12;76.93;97333.22;4111284;33;19910;-83
2022/03/11 01:27:45;;;;;;;;;;;0.30;81.00;;;-1.13;76.23;97336.94;4111357;33;20435;-83
2022/03/11 01:30:16;;;;;;;;;;;0.30;80.80;;;-1.12;76.22;97335.09;4110398;33;20210;-84
2022/03/11 01:32:44;;;;;;;;;;;0.30;80.70;;;-1.12;76.25;97337.78;4134350;33;20205;-84
2022/03/11 01:35:13;;;;;;;;;;;0.30;80.90;;;-1.13;76.41;97342.31;4111841;33;20220;-83
2022/03/11 01:37:43;;;;;;;;;;;0.30;80.70;;;-1.14;76.36;97335.25;4111046;33;19903;-83
2022/03/11 01:40:12;;;;;;;;;;;0.30;80.70;;;-1.14;76.03;97337.09;4110812;33;20189;-83
2022/03/11 01:42:41;;;;;;;;;;;0.30;80.60;;;-1.15;76.19;97344.31;4110912;33;19903;-84
2022/03/11 01:45:11;;;;;;;;;;;0.30;80.60;;;-1.14;76.71;97350.53;4113977;33;20230;-84
2022/03/11 01:47:39;;;;;;;;;;;0.30;80.80;;;-1.15;76.36;97348.88;4136040;33;20248;-83
2022/03/11 01:50:09;;;;;;;;;;;0.20;80.70;;;-1.15;76.67;97356.94;4113631;33;20263;-84
2022/03/11 01:52:38;;;;;;;;;;;0.30;80.90;;;-1.16;76.48;97347.19;4140307;33;19902;-83
2022/03/11 01:55:07;;;;;;;;;;;0.30;80.80;;;-1.16;76.38;97352.56;4118066;33;20196;-83
2022/03/11 01:57:36;;;;;;;;;;;0.20;80.60;;;-1.16;76.28;97355.25;4118823;33;20193;-83
2022/03/11 02:00:06;;;;;;;;;;;0.20;80.50;;;-1.17;76.63;97350.88;4117306;33;19903;-84
2022/03/11 02:02:42;;;;;;;;;;;0.20;80.70;;;-1.17;76.39;97358.94;4143316;33;19909;-83
2022/03/11 02:05:11;;;;;;;;;;;0.20;80.60;;;-1.17;76.66;97353.56;4120679;33;19907;-83
2022/03/11 02:07:39;;;;;;;;;;;0.20;80.70;;;-1.17;76.50;97345.50;4143699;33;19914;-84
2022/03/11 02:10:09;;;;;;;;;;;0.20;80.70;;;-1.18;76.54;97351.88;4121209;33;20350;-83
2022/03/11 02:12:38;;;;;;;;;;;0.20;80.70;;;-1.19;76.61;97347.50;4120640;33;19902;-83
2022/03/11 02:15:08;;;;;;;;;;;0.20;80.80;;;-1.20;76.17;97344.00;4119954;33;20207;-83
2022/03/11 02:17:36;;;;;;;;;;;0.20;80.80;;;-1.20;76.49;97345.81;4142859;33;20130;-83
2022/03/11 02:20:08;;;;;;;;;;;0.20;80.80;;;-1.20;76.34;97340.44;4142401;33;20217;-83
2022/03/11 02:22:37;;;;;;;;;;;0.20;80.50;;;-1.22;76.81;97335.25;4144665;33;20217;-83
2022/03/11 02:25:09;;;;;;;;;;;0.20;80.80;;;-1.21;76.52;97341.47;4142556;33;20164;-83
2022/03/11 02:27:38;;;;;;;;;;;0.20;80.80;;;-1.21;76.43;97346.84;4119663;33;19902;-83
2022/03/11 02:30:13;;;;;;;;;;;0.20;80.90;;;-1.24;76.33;97339.97;4143434;33;19902;-83
2022/03/11 02:32:42;;;;;;;;;;;0.20;80.80;;;-1.25;76.43;97339.13;4142956;33;20196;-83
2022/03/11 02:35:11;;;;;;;;;;;0.20;80.60;;;-1.24;76.41;97350.69;4119555;33;19907;-83
2022/03/11 02:37:39;;;;;;;;;;;0.20;80.70;;;-1.24;76.54;97350.69;4120306;33;19907;-83
2022/03/11 02:40:10;;;;;;;;;;;0.20;81.10;;;-1.24;76.67;97350.69;4119007;33;20259;-83
2022/03/11 02:42:39;;;;;;;;;;;0.20;80.70;;;-1.25;76.25;97344.50;4119671;33;20559;-83
2022/03/11 02:45:08;;;;;;;;;;;0.20;80.70;;;-1.25;76.41;97349.88;4119349;33;19903;-83
2022/03/11 02:47:37;;;;;;;;;;;0.20;80.40;;;-1.26;76.14;97340.13;4119739;33;20505;-83
2022/03/11 02:50:07;;;;;;;;;;;0.20;80.50;;;-1.27;76.28;97340.28;4118782;33;19902;-82
2022/03/11 02:52:35;;;;;;;;;;;0.20;80.70;;;-1.28;76.27;97339.47;4142026;33;20197;-83
2022/03/11 02:55:04;;;;;;;;;;;0.20;80.80;;;-1.28;76.61;97342.13;4141667;33;20099;-83
2022/03/11 02:57:34;;;;;;;;;;;0.20;80.70;;;-1.28;76.35;97344.84;4141784;33;20486;-82
2022/03/11 03:00:04;;;;;;;;;;;0.10;80.70;;;-1.28;76.53;97352.03;4119351;33;20083;-82
2022/03/11 03:02:32;;;;;;;;;;;0.10;80.80;;;-1.28;76.06;97349.34;4119182;33;20747;-83
2022/03/11 03:05:01;;;;;;;;;;;0.10;80.60;;;-1.29;76.33;97348.53;4141543;33;19922;-83
2022/03/11 03:07:30;;;;;;;;;;;0.10;80.60;;;-1.29;76.32;97353.91;4139929;33;20240;-83
2022/03/11 03:09:59;;;;;;;;;;;0.10;80.70;;;-1.29;76.22;97347.69;4119199;33;20228;-83
2022/03/11 03:12:28;;;;;;;;;;;0.10;80.60;;;-1.31;76.48;97355.06;4142684;33;19926;-83
2022/03/11 03:14:57;;;;;;;;;;;0.10;80.50;;;-1.31;76.25;97353.22;4140777;33;20193;-83
2022/03/11 03:17:31;;;;;;;;;;;0.10;80.70;;;-1.31;76.53;97355.91;4140247;33;20241;-83
2022/03/11 03:19:59;;;;;;;;;;;0.10;80.60;;;-1.32;76.51;97356.91;4138169;33;20199;-83
2022/03/11 03:22:28;;;;;;;;;;;0.10;80.80;;;-1.32;76.50;97353.41;4168824;33;19902;-83
2022/03/11 03:24:56;;;;;;;;;;;0.10;80.70;;;-1.35;76.14;97359.91;4144863;33;20497;-83
2022/03/11 03:27:25;;;;;;;;;;;0.10;80.70;;;-1.34;76.33;97356.22;4144731;33;19902;-83
2022/03/11 03:29:53;;;;;;;;;;;0.10;80.60;;;-1.33;76.39;97362.47;4167558;33;19903;-83
2022/03/11 03:32:23;;;;;;;;;;;0.10;80.70;;;-1.35;76.18;97361.78;4144699;33;20221;-83
2022/03/11 03:34:53;;;;;;;;;;;0.10;80.60;;;-1.34;75.85;97358.91;4169407;33;19909;-83
2022/03/11 03:37:21;;;;;;;;;;;0.10;80.70;;;-1.36;76.32;97366.31;4146632;33;20221;-83
2022/03/11 03:39:50;;;;;;;;;;;0.10;80.60;;;-1.36;76.48;97363.63;4146861;33;19909;-83
2022/03/11 03:42:18;;;;;;;;;;;0.10;80.70;;;-1.36;76.53;97362.78;4147593;33;20444;-83
2022/03/11 03:44:47;;;;;;;;;;;0.00;80.40;;;-1.36;76.19;97360.09;4146858;33;19909;-83
2022/03/11 03:47:15;;;;;;;;;;;0.10;80.70;;;-1.38;76.45;97357.59;4149979;33;20441;-83
2022/03/11 03:49:45;;;;;;;;;;;0.00;80.70;;;-1.39;76.23;97354.03;4147258;33;19903;-83
2022/03/11 03:52:14;;;;;;;;;;;0.00;80.60;;;-1.39;76.17;97363.97;4147384;33;20223;-82
2022/03/11 03:54:44;;;;;;;;;;;0.00;80.60;;;-1.40;76.27;97368.47;4146756;33;20210;-82
2022/03/11 03:57:13;;;;;;;;;;;0.00;80.60;;;-1.40;76.38;97362.28;4146372;33;20212;-82
2022/03/11 03:59:41;;;;;;;;;;;0.00;80.60;;;-1.41;76.51;97366.78;4167598;33;20504;-82
2022/03/11 04:02:10;;;;;;;;;;;0.00;80.60;;;-1.41;76.70;97377.53;4143375;33;20404;-82
2022/03/11 04:04:38;;;;;;;;;;;0.00;80.80;;;-1.40;76.13;97381.09;4162108;33;20538;-82
2022/03/11 04:07:08;;;;;;;;;;;0.00;80.60;;;-1.42;76.53;97375.84;4138162;33;19910;-83
2022/03/11 04:09:37;;;;;;;;;;;0.00;80.40;;;-1.42;76.47;97380.41;4137384;33;20221;-82
2022/03/11 04:12:06;;;;;;;;;;;0.00;80.70;;;-1.44;76.50;97371.66;4161606;33;20432;-82
2022/03/11 04:14:35;;;;;;;;;;;0.00;80.70;;;-1.44;75.89;97377.91;4137971;33;19910;-82
2022/03/11 04:17:05;;;;;;;;;;;0.00;80.80;;;-1.45;76.53;97369.97;4159829;33;20199;-82
2022/03/11 04:19:33;;;;;;;;;;;0.00;80.60;;;-1.45;76.13;97380.72;4158594;33;20193;-82
2022/03/11 04:22:02;;;;;;;;;;;0.00;80.60;;;-1.46;76.48;97374.53;4159186;33;20231;-83
2022/03/11 04:24:32;;;;;;;;;;;0.00;80.80;;;-1.45;76.13;97378.03;4157482;33;19913;-83
2022/03/11 04:27:00;;;;;;;;;;;0.00;80.70;;;-1.46;76.57;97379.91;4157460;33;19910;-82
2022/03/11 04:29:29;;;;;;;;;;;0.00;80.50;;;-1.46;76.17;97384.41;4133585;33;20197;-82
2022/03/11 04:31:57;;;;;;;;;;;0.00;80.60;;;-1.46;76.70;97379.91;4157541;33;19902;-82
2022/03/11 04:34:26;;;;;;;;;;;0.00;80.60;;;-1.47;75.87;97394.34;4124354;33;20214;-83
2022/03/11 04:36:56;;;;;;;;;;;0.00;80.40;;;-1.48;76.22;97392.66;4107013;33;19902;-83
2022/03/11 04:39:26;;;;;;;;;;;0.00;80.60;;;-1.48;76.46;97391.78;4106351;33;20203;-83
2022/03/11 04:41:56;;;;;;;;;;;0.00;80.70;;;-1.48;76.31;97391.78;4108586;33;20377;-83
2022/03/11 04:44:25;;;;;;;;;;;0.00;80.60;;;-1.48;76.11;97399.84;4131759;33;19910;-83
2022/03/11 04:46:53;;;;;;;;;;;-0.10;80.60;;;-1.49;76.67;97398.19;4132744;33;20450;-83
2022/03/11 04:49:22;;;;;;;;;;;-0.10;80.60;;;-1.50;76.54;97405.41;4108928;33;20142;-83
2022/03/11 04:51:50;;;;;;;;;;;-0.10;80.70;;;-1.50;76.19;97394.66;4115845;33;20207;-83
2022/03/11 04:54:19;;;;;;;;;;;0.00;80.60;;;-1.46;76.48;97392.47;4115197;33;19902;-83
2022/03/11 04:56:47;;;;;;;;;;;0.00;80.80;;;-1.34;76.21;97393.84;4140815;33;20201;-83
2022/03/11 04:59:17;;;;;;;;;;;0.10;80.80;;;-1.17;75.71;97393.88;4136821;33;19909;-83
2022/03/11 05:01:46;;;;;;;;;;;0.20;80.10;;;-1.00;75.37;97384.81;4114277;33;19903;-83
2022/03/11 05:04:14;;;;;;;;;;;0.40;79.30;;;-0.82;74.59;97383.78;4119554;33;20190;-83
2022/03/11 05:06:43;;;;;;;;;;;0.70;78.60;;;-0.62;73.97;97382.44;4143253;33;20198;-83
2022/03/11 05:09:11;;;;;;;;;;;0.90;77.50;;;-0.34;73.74;97390.13;4119489;33;20204;-83
2022/03/11 05:11:40;;;;;;;;;;;1.30;76.80;;;-0.02;71.89;97392.88;4143231;33;20264;-83
2022/03/11 05:14:08;;;;;;;;;;;1.70;75.40;;;0.34;70.70;97397.78;4120109;33;20126;-83
2022/03/11 05:16:38;;;;;;;;;;;2.10;73.60;;;0.61;69.00;97401.84;4143401;33;20204;-83
2022/03/11 05:19:07;;;;;;;;;;;2.30;71.40;;;0.77;67.74;97405.44;4119380;33;20210;-83
2022/03/11 05:21:35;;;;;;;;;;;2.50;69.90;;;0.91;67.27;97393.91;4119802;33;19909;-83
2022/03/11 05:24:05;;;;;;;;;;;2.60;69.20;;;1.04;66.14;97397.84;4141470;33;20589;-83
2022/03/11 05:26:33;;;;;;;;;;;2.70;68.30;;;1.15;65.12;97394.72;4142401;33;19903;-83
2022/03/11 05:29:02;;;;;;;;;;;2.80;67.20;;;1.24;64.71;97403.59;4119706;33;20595;-83
2022/03/11 05:31:31;;;;;;;;;;;2.80;67.00;;;1.31;64.36;97406.41;4142881;33;20125;-83
2022/03/11 05:34:01;;;;;;;;;;;2.80;66.60;;;1.35;64.05;97402.34;4120367;33;20186;-82
2022/03/11 05:36:30;;;;;;;;;;;2.80;66.20;;;1.37;63.98;97402.97;4120362;33;20205;-82
2022/03/11 05:38:58;;;;;;;;;;;2.90;66.20;;;1.40;63.76;97396.38;4121403;33;19906;-83
2022/03/11 05:41:27;;;;;;;;;;;2.90;66.60;;;1.42;64.33;97405.97;4144792;33;20215;-83
2022/03/11 05:43:56;;;;;;;;;;;2.90;66.30;;;1.47;64.05;97403.56;4144953;33;20227;-83
2022/03/11 05:46:24;;;;;;;;;;;3.10;66.00;;;1.56;63.65;97396.22;4122198;33;20138;-83
2022/03/11 05:48:53;;;;;;;;;;;3.20;65.60;;;1.68;63.32;97400.13;4144172;33;20237;-83
2022/03/11 05:51:23;;;;;;;;;;;3.50;64.90;;;1.88;63.40;97398.75;4120887;33;20239;-83
2022/03/11 05:53:52;;;;;;;;;;;3.80;64.00;;;2.08;62.77;97405.28;4144197;33;20031;-82
2022/03/11 05:56:21;;;;;;;;;;;4.10;62.70;;;2.26;61.67;97402.19;4144139;33;20196;-83
2022/03/11 05:58:50;;;;;;;;;;;4.50;61.60;;;2.39;61.16;97392.59;4144063;33;19910;-83
2022/03/11 06:01:19;;;;;;;;;;;4.70;59.90;;;2.50;59.92;97396.69;4144745;33;20065;-82
2022/03/11 06:03:47;;;;;;;;;;;4.80;58.50;;;2.47;59.57;97397.06;4145084;33;20217;-82
2022/03/11 06:06:16;;;;;;;;;;;4.70;58.30;;;2.35;58.98;97399.38;4122565;33;20535;-82
2022/03/11 06:08:46;;;;;;;;;;;4.40;58.20;;;2.18;59.15;97401.47;4141603;33;19910;-82
2022/03/11 06:11:15;;;;;;;;;;;4.10;58.70;;;1.97;60.42;97408.47;4141082;33;19970;-82
2022/03/11 06:13:43;;;;;;;;;;;3.80;59.60;;;1.73;60.99;97406.84;4140475;33;20195;-82
2022/03/11 06:16:12;;;;;;;;;;;3.50;61.00;;;1.51;61.56;97404.03;4117836;33;19994;-81
2022/03/11 06:18:40;;;;;;;;;;;3.20;61.90;;;1.28;61.94;97412.16;4145877;33;20213;-82
2022/03/11 06:21:09;;;;;;;;;;;3.00;63.90;;;1.08;63.34;97415.34;4170585;33;20213;-82
2022/03/11 06:23:37;;;;;;;;;;;2.70;64.40;;;0.91;63.85;97414.59;4170683;33;19910;-82
2022/03/11 06:26:07;;;;;;;;;;;2.50;65.40;;;0.75;64.68;97419.13;4170615;33;20224;-82
2022/03/11 06:28:36;;;;;;;;;;;2.40;66.50;;;0.63;65.56;97408.91;4171669;33;20238;-82
2022/03/11 06:31:04;;;;;;;;;;;2.20;68.00;;;0.53;66.10;97417.19;4173319;33;19909;-82
2022/03/11 06:33:33;;;;;;;;;;;2.10;69.00;;;0.44;66.83;97409.16;4173474;33;20193;-82
2022/03/11 06:36:01;;;;;;;;;;;1.90;69.50;;;0.38;67.23;97409.03;4172311;33;19910;-83
2022/03/11 06:38:30;;;;;;;;;;;1.90;70.30;;;0.33;68.21;97411.41;4148888;33;20200;-82
2022/03/11 06:41:00;;;;;;;;;;;1.80;71.40;;;0.28;68.39;97403.84;4172013;33;19902;-82
2022/03/11 06:43:29;;;;;;;;;;;1.80;71.90;;;0.26;68.56;97406.72;4173056;33;20588;-83
2022/03/11 06:45:58;;;;;;;;;;;1.70;72.20;;;0.25;69.37;97404.22;4170211;33;20191;-82
2022/03/11 06:48:27;;;;;;;;;;;1.70;72.70;;;0.23;69.57;97395.47;4168538;33;19902;-82
2022/03/11 06:50:55;;;;;;;;;;;1.60;73.00;;;0.23;69.71;97400.88;4167235;33;20518;-82
2022/03/11 06:53:26;;;;;;;;;;;1.60;73.20;;;0.22;69.79;97397.31;4143308;33;20198;-82
2022/03/11 06:55:55;;;;;;;;;;;1.60;73.30;;;0.22;69.75;97393.78;4143768;33;20212;-82
2022/03/11 06:58:23;;;;;;;;;;;1.60;73.60;;;0.25;69.65;97406.91;4166296;33;19902;-83
2022/03/11 07:00:53;;;;;;;;;;;1.60;73.70;;;0.25;70.29;97390.75;4166104;33;20210;-82
2022/03/11 07:03:22;;;;;;;;;;;1.60;73.90;;;0.27;70.17;97399.47;4116813;33;20235;-82
2022/03/11 07:05:50;;;;;;;;;;;1.60;74.00;;;0.28;70.11;97393.94;4138598;33;20337;-83
2022/03/11 07:08:20;;;;;;;;;;;1.60;74.00;;;0.30;70.16;97385.66;4138861;33;19903;-83
2022/03/11 07:10:50;;;;;;;;;;;1.70;74.10;;;0.32;70.62;97390.91;4115116;33;20192;-83
2022/03/11 07:13:19;;;;;;;;;;;1.60;74.30;;;0.35;70.37;97390.53;4115569;33;19903;-83
2022/03/11 07:15:47;;;;;;;;;;;1.70;74.60;;;0.37;70.95;97391.19;4115169;33;20194;-83
2022/03/11 07:18:17;;;;;;;;;;;1.70;74.80;;;0.38;70.70;97387.47;4138533;33;19910;-83
2022/03/11 07:20:47;;;;;;;;;;;1.70;74.80;;;0.42;70.90;97383.44;4115440;33;20222;-83
2022/03/11 07:23:15;;;;;;;;;;;1.70;74.90;;;0.44;70.75;97386.78;4138598;33;19903;-83
2022/03/11 07:25:44;;;;;;;;;;;1.70;75.00;;;0.47;70.93;97381.03;4115601;33;20326;-83
2022/03/11 07:28:13;;;;;;;;;;;1.80;75.00;;;0.50;71.05;97380.69;4116786;33;20207;-83
2022/03/11 07:30:42;;;;;;;;;;;1.80;75.10;;;0.54;70.87;97384.72;4141335;33;19909;-83
2022/03/11 07:33:11;;;;;;;;;;;1.80;75.00;;;0.58;70.81;97388.69;4141340;33;20201;-83
2022/03/11 07:35:41;;;;;;;;;;;1.90;75.20;;;0.61;70.33;97388.34;4117375;33;20201;-83
2022/03/11 07:38:09;;;;;;;;;;;1.90;75.10;;;0.64;70.81;97372.84;4116549;33;20232;-83
2022/03/11 07:40:38;;;;;;;;;;;1.90;75.00;;;0.66;70.65;97384.28;4139065;33;20191;-83
2022/03/11 07:43:09;;;;;;;;;;;1.90;75.00;;;0.68;70.33;97377.69;4118001;33;19902;-83
2022/03/11 07:45:37;;;;;;;;;;;1.90;74.50;;;0.68;70.18;97372.31;4143096;33;20188;-83
2022/03/11 07:48:06;;;;;;;;;;;1.90;74.30;;;0.70;69.98;97364.06;4116963;33;20243;-83
2022/03/11 07:50:35;;;;;;;;;;;1.90;74.10;;;0.70;69.75;97372.97;4115710;33;19902;-83
2022/03/11 07:53:05;;;;;;;;;;;1.90;73.80;;;0.71;69.43;97361.19;4115918;33;20206;-83
2022/03/11 07:55:34;;;;;;;;;;;2.00;73.80;;;0.72;69.59;97364.69;4135737;33;20280;-83
2022/03/11 07:58:03;;;;;;;;;;;1.90;73.70;;;0.73;69.70;97358.28;4133532;33;20198;-83
2022/03/11 08:00:31;;;;;;;;;;;2.00;73.80;;;0.73;69.32;97358.28;4133823;33;20211;-83
2022/03/11 08:03:00;;;;;;;;;;;1.90;74.00;;;0.73;70.03;97352.91;4133952;33;19902;-83
2022/03/11 08:05:30;;;;;;;;;;;2.00;74.10;;;0.73;69.85;97352.91;4108605;33;20263;-83
2022/03/11 08:07:58;;;;;;;;;;;2.00;74.20;;;0.72;70.05;97357.47;4107815;33;19903;-83
2022/03/11 08:10:29;;;;;;;;;;;2.00;74.10;;;0.72;69.89;97353.91;4130166;33;20223;-83
2022/03/11 08:12:57;;;;;;;;;;;2.00;74.20;;;0.72;69.71;97356.63;4107117;33;19903;-83
2022/03/11 08:15:26;;;;;;;;;;;2.00;74.20;;;0.71;69.77;97355.78;4130245;33;20566;-83
2022/03/11 08:17:55;;;;;;;;;;;2.00;74.20;;;0.72;70.05;97356.63;4130052;33;20208;-83
2022/03/11 08:20:24;;;;;;;;;;;2.00;74.10;;;0.71;70.19;97353.09;4130209;33;19981;-83
2022/03/11 08:22:54;;;;;;;;;;;2.00;74.30;;;0.70;70.10;97353.28;4108017;33;20199;-83
2022/03/11 08:25:26;;;;;;;;;;;2.00;74.30;;;0.70;70.27;97353.28;4129671;33;20196;-82
2022/03/11 08:27:56;;;;;;;;;;;2.00;74.40;;;0.68;70.27;97355.31;4106794;33;19907;-82
2022/03/11 08:30:25;;;;;;;;;;;2.00;74.40;;;0.67;70.27;97348.25;4130920;33;20202;-83
2022/03/11 08:32:55;;;;;;;;;;;1.90;74.40;;;0.66;70.43;97341.19;4108902;33;20228;-83
2022/03/11 08:35:24;;;;;;;;;;;1.90;74.50;;;0.65;70.77;97345.72;4108652;33;19903;-82
2022/03/11 08:37:52;;;;;;;;;;;1.90;74.60;;;0.63;70.42;97341.53;4131461;33;20460;-82
2022/03/11 08:40:23;;;;;;;;;;;1.90;74.60;;;0.63;70.50;97341.53;4130942;33;19909;-82
2022/03/11 08:42:52;;;;;;;;;;;1.90;74.70;;;0.61;70.45;97339.03;4108895;33;20211;-82
2022/03/11 08:45:22;;;;;;;;;;;1.90;74.70;;;0.60;70.27;97340.88;4108424;33;19910;-82
2022/03/11 08:47:51;;;;;;;;;;;1.90;74.70;;;0.57;70.43;97333.16;4108636;33;20213;-82
2022/03/11 08:50:20;;;;;;;;;;;1.90;74.60;;;0.56;70.82;97331.47;4108114;33;19910;-82
2022/03/11 08:52:49;;;;;;;;;;;1.90;74.60;;;0.54;70.49;97338.03;4135328;33;19902;-83
2022/03/11 08:55:17;;;;;;;;;;;1.90;74.40;;;0.49;70.73;97341.28;4115380;33;20199;-82
2022/03/11 08:57:49;;;;;;;;;;;1.80;74.50;;;0.43;70.54;97331.22;4114787;33;20190;-82
2022/03/11 09:00:19;;;;;;;;;;;1.80;74.50;;;0.35;71.19;97328.56;4114416;33;20203;-82
2022/03/11 09:02:49;;;;;;;;;;;1.70;74.80;;;0.32;71.46;97324.38;4114880;33;20202;-82
2022/03/11 09:05:20;;;;;;;;;;;1.70;75.00;;;0.31;71.25;97311.94;4139264;33;19903;-83
2022/03/11 09:07:51;;;;;;;;;;;1.70;75.20;;;0.30;71.49;97316.50;4138867;33;19910;-82
2022/03/11 09:10:20;;;;;;;;;;;1.70;75.40;;;0.30;71.23;97311.09;4138187;33;20231;-82
2022/03/11 09:12:48;;;;;;;;;;;1.70;75.50;;;0.30;71.63;97315.63;4115302;33;20264;-83
2022/03/11 09:15:17;;;;;;;;;;;1.70;75.50;;;0.29;71.24;97308.56;4138031;33;20120;-83
2022/03/11 09:17:46;;;;;;;;;;;1.70;75.40;;;0.29;71.44;97309.44;4114591;33;19907;-83
2022/03/11 09:20:16;;;;;;;;;;;1.70;75.40;;;0.27;71.35;97295.28;4158998;33;19910;-83
2022/03/11 09:22:44;;;;;;;;;;;1.60;76.00;;;0.29;71.27;97309.44;4164645;33;20164;-83
2022/03/11 09:25:13;;;;;;;;;;;1.70;75.40;;;0.28;71.54;97310.44;4165522;33;20441;-83
2022/03/11 09:27:42;;;;;;;;;;;1.70;75.40;;;0.27;71.65;97295.28;4188916;33;20240;-83
2022/03/11 09:30:12;;;;;;;;;;;1.70;75.60;;;0.26;71.44;97292.75;4141981;33;19906;-83
2022/03/11 09:32:41;;;;;;;;;;;1.60;75.50;;;0.24;71.40;97295.66;4135785;33;20209;-82
2022/03/11 09:35:10;;;;;;;;;;;1.60;75.60;;;0.24;71.78;97292.94;4135693;33;20207;-83
2022/03/11 09:37:41;;;;;;;;;;;1.60;75.70;;;0.24;71.78;97301.03;4159341;33;20215;-83
2022/03/11 09:40:12;;;;;;;;;;;1.60;75.80;;;0.22;71.74;97297.66;4158370;33;19902;-83
2022/03/11 09:42:40;;;;;;;;;;;1.60;75.80;;;0.22;71.73;97294.97;4137019;33;20202;-83
2022/03/11 09:45:11;;;;;;;;;;;1.60;75.60;;;0.21;71.68;97285.22;4136867;33;20210;-83
2022/03/11 09:47:41;;;;;;;;;;;1.60;75.40;;;0.20;72.03;97278.16;4157847;33;20220;-83
2022/03/11 09:50:10;;;;;;;;;;;1.60;75.60;;;0.15;72.02;97270.63;4156375;33;19902;-83
2022/03/11 09:52:42;;;;;;;;;;;1.60;75.60;;;0.16;71.64;97276.84;4133188;33;20472;-83
2022/03/11 09:55:11;;;;;;;;;;;1.60;75.60;;;0.16;72.00;97276.84;4118198;33;20235;-82
2022/03/11 09:57:40;;;;;;;;;;;1.50;75.70;;;0.13;71.89;97278.03;4153326;33;20146;-83
2022/03/11 10:00:10;;;;;;;;;;;1.50;75.70;;;0.12;71.81;97280.91;4105621;33;19902;-83
2022/03/11 10:02:44;;;;;;;;;;;1.50;75.70;;;0.10;72.15;97269.47;4128706;33;19910;-83
2022/03/11 10:05:14;;;;;;;;;;;1.60;75.70;;;0.08;72.15;97263.44;4131377;33;20240;-83
2022/03/11 10:07:44;;;;;;;;;;;1.50;75.90;;;0.07;72.07;97270.69;4131066;33;19911;-83
2022/03/11 10:10:15;;;;;;;;;;;1.50;76.00;;;0.07;72.28;97283.28;4130120;33;20207;-83
2022/03/11 10:12:45;;;;;;;;;;;1.50;76.00;;;0.05;72.05;97274.56;4130966;33;20196;-83
2022/03/11 10:15:16;;;;;;;;;;;1.50;75.90;;;0.04;72.06;97280.97;4133470;33;20507;-82
2022/03/11 10:17:46;;;;;;;;;;;1.50;75.80;;;0.02;71.81;97274.91;4109925;33;20216;-83
2022/03/11 10:20:16;;;;;;;;;;;1.50;75.90;;;0.02;72.00;97269.53;4133543;33;19902;-83
2022/03/11 10:22:46;;;;;;;;;;;1.40;75.70;;;0.00;72.13;97261.66;4138671;33;19909;-83
2022/03/11 10:25:17;;;;;;;;;;;1.40;75.70;;;-0.02;72.11;97263.69;4138497;33;19903;-83
2022/03/11 10:27:59;;;;;;;;;;;1.40;75.80;;;-0.03;72.15;97260.13;4110542;33;19933;-83
2022/03/11 10:30:28;;;;;;;;;;;1.40;75.60;;;-0.05;72.17;97262.16;4132506;33;19907;-83
2022/03/11 10:32:59;;;;;;;;;;;1.40;75.70;;;-0.07;71.99;97264.22;4132813;33;19914;-83
2022/03/11 10:35:31;;;;;;;;;;;1.40;75.50;;;-0.08;71.16;97265.22;4109806;33;19907;-83
2022/03/11 10:38:03;;;;;;;;;;;1.40;75.50;;;-0.11;71.72;97260.19;4134465;33;20201;-83
2022/03/11 10:40:33;;;;;;;;;;;1.30;75.60;;;-0.11;71.77;97262.03;4139798;33;20194;-83
2022/03/11 10:43:13;;;;;;;;;;;1.40;75.60;;;-0.13;72.07;97272.97;4138691;33;20196;-83
2022/03/11 10:45:47;;;;;;;;;;;1.30;75.60;;;-0.15;72.02;97264.22;4111137;33;19913;-83
2022/03/11 10:48:16;;;;;;;;;;;1.30;76.40;;;-0.15;72.18;97258.84;4109703;33;20199;-83
2022/03/11 10:50:44;;;;;;;;;;;1.30;75.70;;;-0.16;72.35;97257.16;4132188;33;20196;-83
2022/03/11 10:53:14;;;;;;;;;;;1.30;75.80;;;-0.17;72.03;97255.50;4131907;33;19910;-83
2022/03/11 10:55:43;;;;;;;;;;;1.30;75.80;;;-0.18;72.16;97243.91;4108805;33;19903;-83
2022/03/11 10:58:16;;;;;;;;;;;1.30;75.90;;;-0.19;72.52;97253.00;4109049;33;20198;-83
2022/03/11 11:00:45;;;;;;;;;;;1.30;76.00;;;-0.20;72.39;97247.78;4132175;33;19933;-83
2022/03/11 11:03:14;;;;;;;;;;;1.30;76.00;;;-0.21;72.65;97243.41;4109615;33;19902;-83
2022/03/11 11:05:42;;;;;;;;;;;1.20;76.10;;;-0.23;72.62;97242.75;4133571;33;20214;-83
2022/03/11 11:08:11;;;;;;;;;;;1.20;76.10;;;-0.24;72.37;97235.69;4133298;33;20200;-83
2022/03/11 11:10:41;;;;;;;;;;;1.20;76.10;;;-0.24;72.32;97243.78;4131860;33;19922;-83
2022/03/11 11:13:09;;;;;;;;;;;1.20;76.00;;;-0.26;72.50;97243.09;4133001;33;20149;-83
2022/03/11 11:15:39;;;;;;;;;;;1.20;76.10;;;-0.26;72.40;97240.41;4134088;33;20221;-83
2022/03/11 11:18:13;;;;;;;;;;;1.20;76.00;;;-0.29;72.79;97238.91;4115340;33;19925;-83
2022/03/11 11:20:47;;;;;;;;;;;1.20;75.90;;;-0.29;72.22;97238.06;4138983;33;20065;-84
2022/03/11 11:23:16;;;;;;;;;;;1.20;76.00;;;-0.29;72.17;97235.38;4140518;33;20106;-83
2022/03/11 11:25:46;;;;;;;;;;;1.10;75.80;;;-0.32;72.75;97226.63;4121507;33;19902;-83
2022/03/11 11:28:17;;;;;;;;;;;1.10;76.20;;;-0.34;72.39;97220.63;4143101;33;19903;-83
2022/03/11 11:30:46;;;;;;;;;;;1.10;76.30;;;-0.35;72.47;97210.88;4142967;33;19933;-83
2022/03/11 11:33:15;;;;;;;;;;;1.10;76.40;;;-0.35;72.59;97218.94;4119270;33;19902;-83
2022/03/11 11:35:44;;;;;;;;;;;1.10;76.40;;;-0.35;72.44;97215.38;4143912;33;20310;-83
2022/03/11 11:38:37;;;;;;;;;;;1.10;76.30;;;-0.37;73.01;97207.50;4121807;33;19902;-84